Time;durP1;ratioP1;P1;durP2;ratioP2;P2;SDS_P1;SDS_P2;PMS_P1;PMS_P2;Temp;Humidity;BMP_temperature;BMP_pressure;BME280_temperature;BME280_humidity;BME280_pressure;Samples;Min_cycle;Max_cycle;Signal;HPM_P1;HPM_P2
2022/09/25 00:00:41;;;;;;;8.95;2.40;;;11.20;99.90;;;;;;5056191;28;20079;-76
2022/09/25 00:03:07;;;;;;;13.70;2.70;;;11.20;99.90;;;;;;5056056;28;20033;-77
2022/09/25 00:05:38;;;;;;;9.43;3.30;;;11.20;99.90;;;;;;5055979;28;20029;-77
2022/09/25 00:08:04;;;;;;;9.85;2.92;;;11.30;99.90;;;;;;5056080;28;20037;-77
2022/09/25 00:10:30;;;;;;;9.05;3.20;;;11.30;99.90;;;;;;5056052;28;20073;-77
2022/09/25 00:12:56;;;;;;;12.63;3.55;;;11.30;99.90;;;;;;5055481;28;20108;-78
2022/09/25 00:15:22;;;;;;;10.75;3.53;;;11.30;99.90;;;;;;5056077;28;20518;-78
2022/09/25 00:17:48;;;;;;;8.57;3.25;;;11.30;99.90;;;;;;5055657;28;20044;-78
2022/09/25 00:20:17;;;;;;;8.43;3.13;;;11.30;99.90;;;;;;5055704;28;20029;-77
2022/09/25 00:22:42;;;;;;;12.73;4.82;;;11.30;99.90;;;;;;5055767;28;20025;-77
2022/09/25 00:25:13;;;;;;;10.50;3.80;;;11.30;99.90;;;;;;5055489;28;20100;-78
2022/09/25 00:27:40;;;;;;;13.23;3.92;;;11.40;99.90;;;;;;5055405;28;20064;-76
2022/09/25 00:30:06;;;;;;;7.95;2.90;;;11.40;99.90;;;;;;5055706;28;20025;-76
2022/09/25 00:32:32;;;;;;;9.48;2.95;;;11.40;99.90;;;;;;5055542;28;20026;-77
2022/09/25 00:34:57;;;;;;;9.15;2.80;;;11.40;99.90;;;;;;5055572;28;20028;-78
2022/09/25 00:37:23;;;;;;;7.57;3.25;;;11.40;99.90;;;;;;5055363;28;20025;-77
2022/09/25 00:39:49;;;;;;;7.70;2.92;;;11.40;99.90;;;;;;5055504;28;20028;-76
2022/09/25 00:42:19;;;;;;;8.55;2.92;;;11.40;99.90;;;;;;5055268;28;20484;-76
2022/09/25 00:44:57;;;;;;;12.55;3.83;;;11.40;99.90;;;;;;5055230;28;20526;-76
2022/09/25 00:47:57;;;;;;;9.68;3.25;;;11.30;99.90;;;;;;5055307;28;20021;-78
2022/09/25 00:50:45;;;;;;;10.10;3.10;;;11.30;99.90;;;;;;5055155;28;20025;-77
2022/09/25 00:53:15;;;;;;;11.07;3.40;;;11.20;99.90;;;;;;5054684;28;20029;-76
2022/09/25 00:55:43;;;;;;;6.30;2.72;;;11.20;99.90;;;;;;5055307;28;20104;-78
2022/09/25 00:58:11;;;;;;;10.27;3.03;;;11.20;99.90;;;;;;5055074;28;20040;-77
2022/09/25 01:00:37;;;;;;;8.73;3.03;;;11.20;99.90;;;;;;5055348;28;20053;-75
2022/09/25 01:03:04;;;;;;;12.43;3.40;;;11.10;99.90;;;;;;5054665;28;20052;-75
2022/09/25 01:05:36;;;;;;;9.32;2.70;;;11.10;99.90;;;;;;5054914;28;20036;-75
2022/09/25 01:08:03;;;;;;;;;;;11.00;99.90;;;;;;5054802;28;20057;-77
2022/09/25 01:10:29;;;;;;;11.10;2.50;;;11.00;99.90;;;;;;5054598;28;19923;-77
2022/09/25 01:12:57;;;;;;;11.95;2.92;;;10.90;99.90;;;;;;5054696;28;20025;-76
2022/09/25 01:15:47;;;;;;;9.98;3.30;;;10.90;99.90;;;;;;5053084;28;20036;-78
2022/09/25 01:18:37;;;;;;;5.82;2.47;;;10.80;99.90;;;;;;5040054;28;20085;-78
2022/09/25 01:21:36;;;;;;;11.30;3.15;;;10.80;99.90;;;;;;5054430;28;20075;-78
2022/09/25 01:24:02;;;;;;;12.45;2.30;;;10.80;99.90;;;;;;5054544;28;20458;-77
2022/09/25 01:26:52;;;;;;;9.75;2.78;;;10.80;99.90;;;;;;5054178;28;20040;-75
2022/09/25 01:29:21;;;;;;;8.32;2.72;;;10.80;99.90;;;;;;5054099;28;20029;-78
2022/09/25 01:32:09;;;;;;;11.48;3.88;;;10.80;99.90;;;;;;5054487;28;20039;-77
2022/09/25 01:34:59;;;;;;;9.52;2.75;;;10.80;99.90;;;;;;5054400;28;20035;-77
2022/09/25 01:37:56;;;;;;;12.20;3.47;;;10.80;99.90;;;;;;5054179;28;20017;-76
2022/09/25 01:40:40;;;;;;;9.45;2.60;;;10.90;99.90;;;;;;5054464;28;20025;-76
2022/09/25 01:43:11;;;;;;;10.95;3.53;;;10.90;99.90;;;;;;5054208;28;20466;-77
2022/09/25 01:46:00;;;;;;;9.15;2.50;;;11.00;99.90;;;;;;5054256;28;20025;-76
2022/09/25 01:48:30;;;;;;;10.75;3.47;;;11.00;99.90;;;;;;5053685;28;20049;-78
2022/09/25 01:51:21;;;;;;;4.85;2.38;;;11.10;99.90;;;;;;5054110;28;20029;-76
2022/09/25 01:53:52;;;;;;;10.63;2.63;;;11.00;99.90;;;;;;5053255;28;20033;-75
2022/09/25 01:56:32;;;;;;;9.20;2.53;;;11.10;99.90;;;;;;5053581;28;20036;-78
2022/09/25 01:59:09;;;;;;;6.63;2.55;;;11.10;99.90;;;;;;5054026;28;20031;-78
2022/09/25 02:01:40;;;;;;;11.43;3.35;;;11.10;99.90;;;;;;5052389;28;20035;-77
2022/09/25 02:04:12;;;;;;;5.53;1.95;;;11.10;99.90;;;;;;5053793;28;20028;-75
2022/09/25 02:06:42;;;;;;;9.18;3.10;;;11.10;99.90;;;;;;5053755;28;20033;-78
2022/09/25 02:09:16;;;;;;;7.43;1.75;;;11.10;99.90;;;;;;5053627;28;20083;-75
2022/09/25 02:11:47;;;;;;;9.48;2.15;;;11.10;99.90;;;;;;5053500;28;20045;-78
2022/09/25 02:14:25;;;;;;;8.95;2.60;;;11.20;99.90;;;;;;5053946;28;20060;-77
2022/09/25 02:16:55;;;;;;;10.73;2.30;;;11.30;99.90;;;;;;5053939;28;20024;-76
2022/09/25 02:22:08;;;;;;;7.80;2.30;;;11.40;99.90;;;;;;5053792;28;20078;-76
2022/09/25 02:24:46;;;;;;;8.27;2.35;;;11.40;99.90;;;;;;5052485;28;20025;-76
2022/09/25 02:27:13;;;;;;;8.32;2.20;;;11.50;99.90;;;;;;5051358;28;20033;-75
2022/09/25 02:29:39;;;;;;;10.00;2.78;;;11.50;99.90;;;;;;5052610;28;20071;-75
2022/09/25 02:32:08;;;;;;;10.50;3.35;;;11.50;99.90;;;;;;5052909;28;20056;-74
2022/09/25 02:34:35;;;;;;;10.98;3.85;;;11.50;99.90;;;;;;5052433;28;20394;-72
2022/09/25 02:37:01;;;;;;;10.93;2.35;;;11.60;99.90;;;;;;5052702;28;20032;-72
2022/09/25 02:39:28;;;;;;;7.57;2.25;;;11.60;99.90;;;;;;5051497;28;20112;-73
2022/09/25 02:42:16;;;;;;;4.63;2.08;;;11.60;99.90;;;;;;5052912;28;20047;-73
2022/09/25 02:44:49;;;;;;;12.45;1.90;;;11.70;99.90;;;;;;5053012;28;20268;-74
2022/09/25 02:47:47;;;;;;;6.82;2.08;;;11.70;99.90;;;;;;5052827;28;20032;-73
2022/09/25 02:50:27;;;;;;;7.32;2.03;;;11.80;99.90;;;;;;5053013;28;20029;-73
2022/09/25 02:53:07;;;;;;;8.50;2.10;;;11.80;99.90;;;;;;5052825;28;20052;-73
2022/09/25 02:55:39;;;;;;;10.10;2.60;;;11.80;99.90;;;;;;5052658;28;20470;-74
2022/09/25 02:58:15;;;;;;;3.90;1.70;;;11.80;99.90;;;;;;5052937;28;20102;-75
2022/09/25 03:00:43;;;;;;;4.88;1.90;;;11.80;99.90;;;;;;5053078;28;20029;-74
2022/09/25 03:03:14;;;;;;;8.30;2.67;;;11.90;99.90;;;;;;5052556;28;20036;-75
2022/09/25 03:05:40;;;;;;;8.00;2.75;;;11.90;99.90;;;;;;5052408;28;20021;-76
2022/09/25 03:10:50;;;;;;;8.25;2.50;;;11.90;99.90;;;;;;5051984;28;20052;-74
2022/09/25 03:13:21;;;;;;;9.18;2.67;;;11.90;99.90;;;;;;5051969;28;20025;-75
2022/09/25 03:15:57;;;;;;;7.78;2.35;;;11.90;99.90;;;;;;5061675;28;20104;-74
2022/09/25 03:18:24;;;;;;;6.80;2.97;;;11.90;99.90;;;;;;5057561;28;20027;-76
2022/09/25 03:20:50;;;;;;;5.75;2.40;;;11.90;99.90;;;;;;5061613;28;20099;-76
2022/09/25 03:23:16;;;;;;;10.20;2.65;;;11.90;99.90;;;;;;5062918;28;20019;-75
2022/09/25 03:25:41;;;;;;;10.07;2.45;;;11.90;99.90;;;;;;5061029;28;20067;-75
2022/09/25 03:28:11;;;;;;;11.35;2.88;;;12.00;99.90;;;;;;5061121;28;20035;-74
2022/09/25 03:30:39;;;;;;;9.80;3.03;;;12.00;99.90;;;;;;5060283;28;20029;-76
2022/09/25 03:33:09;;;;;;;10.93;2.40;;;12.00;99.90;;;;;;5061737;28;20021;-75
2022/09/25 03:35:38;;;;;;;8.35;2.03;;;12.00;99.90;;;;;;5062768;28;20115;-74
2022/09/25 03:38:07;;;;;;;10.93;2.55;;;12.00;99.90;;;;;;5060768;28;20029;-75
2022/09/25 03:40:32;;;;;;;10.15;2.47;;;12.00;99.90;;;;;;5061164;28;20031;-75
2022/09/25 03:42:58;;;;;;;7.57;2.20;;;12.00;99.90;;;;;;5063320;28;20047;-75
2022/09/25 03:45:23;;;;;;;5.95;2.42;;;11.90;99.90;;;;;;5061372;28;20058;-76
2022/09/25 03:47:49;;;;;;;11.85;2.92;;;11.90;99.90;;;;;;5061350;28;20466;-76
2022/09/25 03:50:14;;;;;;;11.48;3.60;;;11.90;99.90;;;;;;5062671;28;20044;-76
2022/09/25 03:52:40;;;;;;;6.68;2.03;;;11.80;99.90;;;;;;5060789;28;20108;-74
2022/09/25 03:55:06;;;;;;;4.07;2.00;;;11.80;99.90;;;;;;5061744;28;20032;-74
2022/09/25 03:57:32;;;;;;;10.45;2.53;;;11.80;99.90;;;;;;5062283;28;20025;-76
2022/09/25 04:00:00;;;;;;;6.75;2.28;;;11.80;99.90;;;;;;5060370;28;20020;-77
2022/09/25 04:02:27;;;;;;;8.07;2.42;;;11.80;99.90;;;;;;5061675;28;20019;-75
2022/09/25 04:04:53;;;;;;;7.10;2.25;;;11.80;99.90;;;;;;5061937;28;20032;-77
2022/09/25 04:07:23;;;;;;;13.02;2.70;;;11.80;99.90;;;;;;5062327;28;20055;-76
2022/09/25 04:09:49;;;;;;;8.48;2.95;;;11.80;99.90;;;;;;5061894;28;20092;-77
2022/09/25 04:12:15;;;;;;;7.30;1.85;;;11.70;99.90;;;;;;5052038;28;20033;-76
2022/09/25 04:14:44;;;;;;;7.35;2.00;;;11.70;99.90;;;;;;5051728;28;20481;-75
2022/09/25 04:17:10;;;;;;;5.72;2.30;;;11.70;99.90;;;;;;5051885;28;20086;-76
2022/09/25 04:19:36;;;;;;;4.82;2.30;;;11.70;99.90;;;;;;5051873;28;20029;-75
2022/09/25 04:22:01;;;;;;;7.10;2.47;;;11.70;99.90;;;;;;5051646;28;20052;-73
2022/09/25 04:27:11;;;;;;;11.38;2.65;;;11.80;99.90;;;;;;5052052;28;20090;-75
2022/09/25 04:29:36;;;;;;;8.05;2.40;;;11.80;99.90;;;;;;5051422;28;20049;-75
2022/09/25 04:34:46;;;;;;;8.50;2.97;;;11.80;99.90;;;;;;5051595;28;20036;-74
2022/09/25 04:37:12;;;;;;;9.75;2.50;;;11.80;99.90;;;;;;5051740;28;20029;-76
2022/09/25 04:39:38;;;;;;;5.50;2.30;;;11.90;99.90;;;;;;5052202;28;20029;-75
2022/09/25 04:42:04;;;;;;;7.07;2.65;;;11.90;99.90;;;;;;5055122;28;20450;-75
2022/09/25 04:44:30;;;;;;;11.60;2.92;;;11.90;99.90;;;;;;5055326;28;20075;-75
2022/09/25 04:46:56;;;;;;;9.27;2.50;;;11.90;99.90;;;;;;5055352;28;20055;-75
2022/09/25 04:49:21;;;;;;;5.68;2.13;;;11.90;99.90;;;;;;5055129;28;20048;-76
2022/09/25 04:51:47;;;;;;;7.78;2.35;;;12.00;99.90;;;;;;5054773;28;20029;-76
2022/09/25 04:54:15;;;;;;;12.25;2.80;;;12.00;99.90;;;;;;5054890;28;20481;-75
2022/09/25 04:56:42;;;;;;;10.00;2.50;;;12.00;99.90;;;;;;5054795;28;20075;-75
2022/09/25 04:59:10;;;;;;;3.88;2.10;;;12.00;99.90;;;;;;5053547;28;20029;-74
2022/09/25 05:01:36;;;;;;;5.32;2.38;;;12.00;99.90;;;;;;5055153;28;20036;-75
2022/09/25 05:04:01;;;;;;;3.67;1.85;;;12.10;99.90;;;;;;5055090;28;20029;-75
2022/09/25 05:06:28;;;;;;;3.97;2.20;;;12.10;99.90;;;;;;5054888;28;20021;-74
2022/09/25 05:08:53;;;;;;;9.30;2.00;;;12.10;99.90;;;;;;5054440;28;20036;-74
2022/09/25 05:11:20;;;;;;;7.60;1.73;;;12.10;99.90;;;;;;5054868;28;20072;-75
2022/09/25 05:13:50;;;;;;;10.05;3.05;;;12.10;99.90;;;;;;5054908;28;20489;-76
2022/09/25 05:16:15;;;;;;;5.75;2.33;;;12.00;99.90;;;;;;5054973;28;20048;-75
2022/09/25 05:18:41;;;;;;;5.13;2.28;;;12.10;99.90;;;;;;5054832;28;20055;-75
2022/09/25 05:21:06;;;;;;;7.50;1.90;;;12.10;99.90;;;;;;5054729;28;20025;-74
2022/09/25 05:23:32;;;;;;;5.78;1.80;;;12.10;99.90;;;;;;5055037;28;20044;-75
2022/09/25 05:26:00;;;;;;;7.13;3.10;;;12.10;99.90;;;;;;5054677;28;20032;-74
2022/09/25 05:28:30;;;;;;;11.18;5.07;;;12.10;99.90;;;;;;5054632;28;20029;-75
2022/09/25 05:31:02;;;;;;;6.60;2.22;;;12.10;99.90;;;;;;5054110;28;20447;-75
2022/09/25 05:33:28;;;;;;;6.78;2.13;;;12.10;99.90;;;;;;5054469;28;20048;-76
2022/09/25 05:35:53;;;;;;;9.63;2.67;;;12.10;99.90;;;;;;5054043;28;20029;-75
2022/09/25 05:38:19;;;;;;;8.35;2.72;;;12.10;99.90;;;;;;5054113;28;20033;-75
2022/09/25 05:40:44;;;;;;;8.85;2.85;;;12.10;99.90;;;;;;5054263;28;20021;-74
2022/09/25 05:43:11;;;;;;;10.07;2.25;;;12.20;99.90;;;;;;5054094;28;20035;-74
2022/09/25 05:45:37;;;;;;;11.02;2.33;;;12.20;99.90;;;;;;5052822;28;20021;-74
2022/09/25 05:48:07;;;;;;;9.77;2.85;;;12.20;99.90;;;;;;5054261;28;20036;-74
2022/09/25 05:50:33;;;;;;;9.65;2.40;;;12.30;99.90;;;;;;5053946;28;20033;-74
2022/09/25 05:53:01;;;;;;;9.10;2.25;;;12.30;99.90;;;;;;5053608;28;20025;-74
2022/09/25 05:55:28;;;;;;;8.13;2.60;;;12.30;99.90;;;;;;5053957;28;20447;-75
2022/09/25 05:57:58;;;;;;;5.22;2.20;;;12.30;99.90;;;;;;5053642;28;20374;-75
2022/09/25 06:00:23;;;;;;;7.38;1.98;;;12.30;99.90;;;;;;5053713;28;20039;-75
2022/09/25 06:02:52;;;;;;;6.20;2.00;;;12.40;99.90;;;;;;5053793;28;20120;-74
2022/09/25 06:05:18;;;;;;;11.70;2.60;;;12.40;99.90;;;;;;5053639;28;20029;-75
2022/09/25 06:07:43;;;;;;;5.40;1.80;;;12.30;99.90;;;;;;5053534;28;20123;-74
2022/09/25 06:10:09;;;;;;;5.90;1.92;;;12.30;99.90;;;;;;5053472;28;20128;-75
2022/09/25 06:12:35;;;;;;;10.50;2.10;;;12.30;99.90;;;;;;5053688;28;20087;-75
2022/09/25 06:15:00;;;;;;;9.20;2.20;;;12.30;99.90;;;;;;5053354;28;20033;-75
2022/09/25 06:17:26;;;;;;;7.55;2.10;;;12.30;99.90;;;;;;5053793;28;20033;-75
2022/09/25 06:19:51;;;;;;;6.15;2.22;;;12.30;99.90;;;;;;5053294;28;20029;-75
2022/09/25 06:22:17;;;;;;;8.25;2.17;;;12.30;99.90;;;;;;5053505;28;20486;-74
2022/09/25 06:24:42;;;;;;;10.32;2.03;;;12.30;99.90;;;;;;5053240;28;20029;-74
2022/09/25 06:27:08;;;;;;;12.00;2.20;;;12.30;99.90;;;;;;5053565;28;20029;-75
2022/09/25 06:29:34;;;;;;;11.18;2.30;;;12.30;99.90;;;;;;5053058;28;20032;-75
2022/09/25 06:32:00;;;;;;;6.25;1.83;;;12.30;99.90;;;;;;5053425;28;20049;-75
2022/09/25 06:34:27;;;;;;;11.48;2.15;;;12.30;99.90;;;;;;5053058;28;20463;-73
2022/09/25 06:36:53;;;;;;;6.38;2.22;;;12.30;99.90;;;;;;5053299;28;20036;-74
2022/09/25 06:39:19;;;;;;;8.60;1.85;;;12.40;99.90;;;;;;5053178;28;20025;-74
2022/09/25 06:41:44;;;;;;;7.35;1.83;;;12.40;99.90;;;;;;5053358;28;20457;-75
2022/09/25 06:44:10;;;;;;;7.63;2.08;;;12.40;99.90;;;;;;5053424;28;20470;-74
2022/09/25 06:46:35;;;;;;;7.30;2.30;;;12.60;99.90;;;;;;5053176;28;20497;-75
2022/09/25 06:49:01;;;;;;;10.35;2.22;;;12.70;99.90;;;;;;5052448;28;20045;-75
2022/09/25 06:51:31;;;;;;;10.98;2.33;;;13.00;99.90;;;;;;5052889;28;20029;-75
2022/09/25 06:53:57;;;;;;;7.55;1.73;;;13.30;99.90;;;;;;5052962;28;20021;-74
2022/09/25 06:56:23;;;;;;;5.47;1.35;;;13.60;99.90;;;;;;5052893;28;20025;-75
2022/09/25 06:58:49;;;;;;;6.40;2.05;;;13.80;99.90;;;;;;5052805;28;20029;-74
2022/09/25 07:01:15;;;;;;;7.88;1.70;;;13.90;99.90;;;;;;5052930;28;20035;-73
2022/09/25 07:03:43;;;;;;;6.30;1.40;;;14.00;99.90;;;;;;5052652;28;20029;-72
2022/09/25 07:06:15;;;;;;;5.10;1.60;;;13.90;99.90;;;;;;5052632;28;20029;-72
2022/09/25 07:08:42;;;;;;;4.87;1.20;;;13.80;99.90;;;;;;5052781;28;20087;-72
2022/09/25 07:11:12;;;;;;;6.30;1.40;;;13.60;99.90;;;;;;5052606;28;20055;-73
2022/09/25 07:13:38;;;;;;;6.90;1.50;;;13.60;99.90;;;;;;5052794;28;20044;-74
2022/09/25 07:16:14;;;;;;;2.10;1.30;;;13.60;99.90;;;;;;5051305;28;20389;-75
2022/09/25 07:18:40;;;;;;;6.95;1.42;;;13.70;99.90;;;;;;5052760;28;20145;-74
2022/09/25 07:21:10;;;;;;;4.50;1.33;;;13.80;99.90;;;;;;5052375;28;20450;-74
2022/09/25 07:23:36;;;;;;;5.50;1.35;;;14.00;99.90;;;;;;5052652;28;20100;-74
2022/09/25 07:26:33;;;;;;;4.78;1.48;;;14.10;99.90;;;;;;5052289;28;20457;-75
2022/09/25 07:29:05;;;;;;;6.78;1.80;;;14.30;99.90;;;;;;5051694;28;20052;-74
2022/09/25 07:31:32;;;;;;;4.35;1.35;;;14.40;99.90;;;;;;5052322;28;20068;-75
2022/09/25 07:34:07;;;;;;;3.78;1.55;;;14.50;99.90;;;;;;5052437;28;20117;-74
2022/09/25 07:36:34;;;;;;;6.57;2.00;;;14.70;99.90;;;;;;5052379;28;20041;-75
2022/09/25 07:38:59;;;;;;;4.55;1.25;;;14.80;99.90;;;;;;5052291;28;20025;-75
2022/09/25 07:41:25;;;;;;;7.00;1.83;;;14.90;99.90;;;;;;5052199;28;20363;-75
2022/09/25 07:43:56;;;;;;;5.10;1.55;;;15.10;99.90;;;;;;5051597;28;20029;-75
2022/09/25 07:46:22;;;;;;;4.72;1.77;;;15.30;99.90;;;;;;5051847;28;20445;-75
2022/09/25 07:48:49;;;;;;;4.22;2.17;;;15.50;99.90;;;;;;5051671;28;20729;-75
2022/09/25 07:51:15;;;;;;;7.03;1.50;;;15.70;99.90;;;;;;5050734;28;20374;-75
2022/09/25 07:53:41;;;;;;;6.90;1.50;;;15.80;99.90;;;;;;5052334;28;20475;-75
2022/09/25 07:56:08;;;;;;;5.47;2.63;;;15.90;99.90;;;;;;5052192;28;20033;-75
2022/09/25 07:58:34;;;;;;;8.38;1.83;;;16.00;99.90;;;;;;5052002;28;20029;-75
2022/09/25 08:01:00;;;;;;;5.85;1.80;;;15.90;99.90;;;;;;5052146;28;20108;-75
2022/09/25 08:03:27;;;;;;;6.78;1.52;;;16.00;99.90;;;;;;5051979;28;20026;-75
2022/09/25 08:06:01;;;;;;;6.45;1.73;;;16.00;99.90;;;;;;5051913;28;20036;-75
2022/09/25 08:08:27;;;;;;;7.50;1.80;;;16.00;99.90;;;;;;5052012;28;20040;-75
2022/09/25 08:11:00;;;;;;;9.15;2.05;;;16.10;99.90;;;;;;5051863;28;20080;-75
2022/09/25 08:13:25;;;;;;;10.15;2.33;;;16.20;99.90;;;;;;5052035;28;20059;-75
2022/09/25 08:15:51;;;;;;;6.65;1.40;;;16.40;99.90;;;;;;5054315;28;20108;-75
2022/09/25 08:18:16;;;;;;;4.95;2.10;;;16.70;99.90;;;;;;5055890;28;20039;-75
2022/09/25 08:20:42;;;;;;;4.47;1.40;;;17.30;99.90;;;;;;5055567;28;20032;-75
2022/09/25 08:23:08;;;;;;;8.60;2.08;;;18.40;99.90;;;;;;5055724;28;20036;-76
2022/09/25 08:25:33;;;;;;;5.80;2.10;;;19.80;99.90;;;;;;5055934;28;20028;-75
2022/09/25 08:27:59;;;;;;;4.03;1.58;;;21.00;99.90;;;;;;5055757;28;20037;-74
2022/09/25 08:30:25;;;;;;;8.73;2.83;;;21.80;99.90;;;;;;5055929;28;20029;-74
2022/09/25 08:32:51;;;;;;;3.97;1.45;;;23.00;99.90;;;;;;5055371;28;20451;-74
2022/09/25 08:35:17;;;;;;;8.95;2.88;;;23.80;99.70;;;;;;5054646;28;20108;-76
2022/09/25 08:37:44;;;;;;;11.35;3.90;;;24.20;98.90;;;;;;5052062;28;20044;-76
2022/09/25 08:40:38;;;;;;;6.40;2.50;;;24.20;97.80;;;;;;5035223;28;20033;-74
2022/09/25 08:43:04;;;;;;;17.27;9.05;;;24.30;97.60;;;;;;5033984;28;20038;-75
2022/09/25 08:51:21;;;;;;;11.88;4.85;;;26.60;94.90;;;;;;5035626;28;20074;-75
2022/09/25 08:53:47;;;;;;;9.60;3.65;;;28.10;93.20;;;;;;5035275;28;20022;-75
2022/09/25 08:56:14;;;;;;;2.97;1.23;;;28.60;92.10;;;;;;5035143;28;20037;-75
2022/09/25 08:58:53;;;;;;;5.40;2.08;;;29.00;91.00;;;;;;5041358;28;20075;-75
2022/09/25 09:01:29;;;;;;;7.20;3.58;;;29.70;90.20;;;;;;5039218;28;20036;-75
2022/09/25 09:04:12;;;;;;;5.15;1.30;;;29.90;86.80;;;;;;5034786;28;20029;-75
2022/09/25 09:06:41;;;;;;;9.38;4.18;;;29.80;83.30;;;;;;5034892;28;20034;-75
2022/09/25 09:09:10;;;;;;;2.88;1.30;;;30.00;83.20;;;;;;5034766;28;20382;-75
2022/09/25 09:11:41;;;;;;;6.25;2.65;;;30.40;79.40;;;;;;5034577;28;20037;-75
2022/09/25 09:14:15;;;;;;;2.67;1.08;;;30.90;80.20;;;;;;5034950;28;20060;-75
2022/09/25 09:16:46;;;;;;;2.55;1.13;;;31.10;76.80;;;;;;5034640;28;20029;-75
2022/09/25 09:19:12;;;;;;;;;;;31.00;73.40;;;;;;5035155;28;20053;-75
2022/09/25 09:22:06;;;;;;;2.30;1.33;;;31.00;78.70;;;;;;5034660;28;19994;-75
2022/09/25 09:25:08;;;;;;;3.30;1.27;;;31.10;76.00;;;;;;5033307;28;20038;-76
2022/09/25 09:28:01;;;;;;;3.42;1.23;;;31.50;75.20;;;;;;5033432;28;20033;-75
2022/09/25 09:30:33;;;;;;;6.15;2.53;;;31.60;68.90;;;;;;5034377;28;20052;-75
2022/09/25 09:33:24;;;;;;;4.70;2.65;;;31.60;70.80;;;;;;5034523;28;20163;-76
2022/09/25 09:36:21;;;;;;;7.80;1.90;;;31.70;75.10;;;;;;5034595;28;20033;-76
2022/09/25 09:39:13;;;;;;;6.57;3.67;;;32.10;71.70;;;;;;5034186;28;20286;-75
2022/09/25 09:42:08;;;;;;;8.98;4.28;;;32.60;71.00;;;;;;5034061;28;20076;-75
2022/09/25 09:44:57;;;;;;;5.38;2.40;;;32.50;72.00;;;;;;5034193;28;20038;-75
2022/09/25 09:47:42;;;;;;;1.58;0.77;;;31.80;72.00;;;;;;5033048;28;20029;-75
2022/09/25 09:50:31;;;;;;;3.33;1.35;;;31.10;70.40;;;;;;5033929;28;20026;-74
2022/09/25 09:53:04;;;;;;;2.80;1.20;;;30.70;67.80;;;;;;5034225;28;20112;-75
2022/09/25 09:55:42;;;;;;;3.13;1.13;;;29.90;69.80;;;;;;5033937;28;20133;-75
2022/09/25 09:58:20;;;;;;;4.05;1.67;;;29.00;71.80;;;;;;5034074;28;20076;-76
2022/09/25 10:00:48;;;;;;;5.72;0.80;;;28.20;74.80;;;;;;5034025;28;20447;-74
2022/09/25 10:03:22;;;;;;;3.22;1.00;;;27.40;73.40;;;;;;5033808;28;20415;-76
2022/09/25 10:06:00;;;;;;;2.97;1.33;;;26.60;75.50;;;;;;5033498;28;20108;-75
2022/09/25 10:08:26;;;;;;;3.08;1.50;;;25.70;77.90;;;;;;5033407;28;20052;-73
2022/09/25 10:10:53;;;;;;;3.28;1.30;;;24.80;80.00;;;;;;5033191;28;20403;-77
2022/09/25 10:13:36;;;;;;;4.13;1.13;;;24.00;82.20;;;;;;5039937;28;20057;-76
2022/09/25 10:16:10;;;;;;;8.75;1.73;;;23.30;84.40;;;;;;5033638;28;20053;-75
2022/09/25 10:19:03;;;;;;;7.28;1.80;;;22.70;85.40;;;;;;5033537;28;20390;-75
2022/09/25 10:21:44;;;;;;;1.63;0.70;;;22.20;88.30;;;;;;5033611;28;20017;-75
2022/09/25 10:25:01;;;;;;;8.80;1.48;;;21.80;89.80;;;;;;5033765;28;20124;-75
2022/09/25 10:27:46;;;;;;;3.38;1.08;;;21.50;90.40;;;;;;5034944;28;20410;-76
2022/09/25 10:30:19;;;;;;;3.30;0.98;;;21.30;91.40;;;;;;5033424;28;20022;-76
2022/09/25 10:32:56;;;;;;;5.13;1.20;;;21.60;92.20;;;;;;5033218;28;20025;-76
2022/09/25 10:35:36;;;;;;;5.38;1.83;;;22.90;91.00;;;;;;5033636;28;20521;-76
2022/09/25 10:38:03;;;;;;;4.30;1.05;;;24.70;89.90;;;;;;5033090;28;20119;-75
2022/09/25 10:40:35;;;;;;;3.97;1.45;;;26.40;83.70;;;;;;5049656;28;20029;-76
2022/09/25 10:43:22;;;;;;;4.47;1.13;;;27.30;80.80;;;;;;5053166;28;20124;-75
2022/09/25 10:45:54;;;;;;;3.70;1.08;;;27.70;79.80;;;;;;5052414;28;20025;-76
2022/09/25 10:51:20;;;;;;;7.47;1.83;;;27.60;77.40;;;;;;5051161;28;20036;-75
2022/09/25 10:53:47;;;;;;;4.65;1.00;;;27.10;80.10;;;;;;5053036;28;20106;-75
2022/09/25 10:56:31;;;;;;;7.28;1.88;;;26.60;80.10;;;;;;5048580;28;20064;-75
2022/09/25 10:59:00;;;;;;;8.30;2.08;;;26.00;80.80;;;;;;5050716;28;20075;-74
2022/09/25 11:01:39;;;;;;;3.78;1.00;;;25.30;81.90;;;;;;5050692;28;20056;-75
2022/09/25 11:04:31;;;;;;;5.28;1.75;;;24.60;84.40;;;;;;5051073;28;20025;-75
2022/09/25 11:07:00;;;;;;;4.80;1.48;;;24.20;84.40;;;;;;5051452;28;20044;-75
2022/09/25 11:09:28;;;;;;;7.10;1.40;;;24.00;83.70;;;;;;5051365;28;20036;-74
2022/09/25 11:12:07;;;;;;;4.18;0.82;;;23.80;84.50;;;;;;5050979;28;20029;-75
2022/09/25 11:14:34;;;;;;;5.68;0.90;;;23.80;86.50;;;;;;5051182;28;20039;-75
2022/09/25 11:17:24;;;;;;;3.38;0.90;;;23.80;88.30;;;;;;5051208;28;20065;-75
2022/09/25 11:20:19;;;;;;;2.78;1.02;;;23.50;90.60;;;;;;5051172;28;20041;-73
2022/09/25 11:23:12;;;;;;;6.07;1.25;;;22.50;93.10;;;;;;5050350;28;20037;-72
2022/09/25 11:25:52;;;;;;;4.53;1.27;;;21.30;94.60;;;;;;5048651;28;20112;-72
2022/09/25 11:28:47;;;;;;;5.22;1.10;;;20.30;97.20;;;;;;5051159;28;20064;-71
2022/09/25 11:31:29;;;;;;;4.47;0.98;;;19.40;99.90;;;;;;5051272;28;20039;-72
2022/09/25 11:34:22;;;;;;;7.50;1.10;;;18.70;99.90;;;;;;5050532;28;20112;-71
2022/09/25 11:36:52;;;;;;;3.33;1.05;;;18.20;99.90;;;;;;5046098;28;20073;-71
2022/09/25 11:42:34;;;;;;;5.55;0.85;;;17.60;99.90;;;;;;5050528;28;20082;-71
2022/09/25 11:45:18;;;;;;;6.78;1.15;;;17.50;99.90;;;;;;5052064;28;20037;-71
2022/09/25 11:47:54;;;;;;;4.70;1.42;;;17.40;99.90;;;;;;5052307;28;20040;-72
2022/09/25 11:50:31;;;;;;;6.20;1.23;;;17.40;99.90;;;;;;5054086;28;20036;-73
2022/09/25 11:53:35;;;;;;;5.95;1.35;;;17.50;99.90;;;;;;5056062;28;20044;-72
2022/09/25 11:56:29;;;;;;;6.13;1.55;;;17.70;99.90;;;;;;5056108;28;20033;-73
2022/09/25 11:59:14;;;;;;;4.85;1.70;;;17.90;99.90;;;;;;5056223;28;20041;-74
2022/09/25 12:02:00;;;;;;;4.45;1.65;;;18.20;99.90;;;;;;5056191;28;20029;-73
2022/09/25 12:04:38;;;;;;;7.38;1.98;;;18.50;99.90;;;;;;5056408;28;20101;-74
2022/09/25 12:07:28;;;;;;;6.15;2.03;;;18.80;99.90;;;;;;5055634;28;20045;-74
2022/09/25 12:10:18;;;;;;;5.35;1.83;;;19.20;99.90;;;;;;5055076;28;20057;-73
2022/09/25 12:12:58;;;;;;;5.13;1.63;;;19.80;99.90;;;;;;5055743;28;20037;-74
2022/09/25 12:15:42;;;;;;;6.65;1.73;;;20.50;99.90;;;;;;5055537;28;20068;-74
2022/09/25 12:18:16;;;;;;;5.90;1.90;;;21.20;99.90;;;;;;5052638;28;20110;-74
2022/09/25 12:20:54;;;;;;;4.38;1.67;;;22.20;99.90;;;;;;5055765;28;20331;-74
2022/09/25 12:23:43;;;;;;;5.13;1.58;;;22.90;99.90;;;;;;5055723;28;20477;-74
2022/09/25 12:26:26;;;;;;;10.75;2.03;;;24.20;99.80;;;;;;5054133;28;20032;-75
2022/09/25 12:29:13;;;;;;;6.88;1.50;;;25.50;97.40;;;;;;5055764;28;20163;-73
2022/09/25 12:31:57;;;;;;;5.60;1.33;;;26.70;94.30;;;;;;5055873;28;20458;-75
2022/09/25 12:34:51;;;;;;;7.00;1.33;;;27.10;93.00;;;;;;5055490;28;20112;-74
2022/09/25 12:37:45;;;;;;;3.83;1.58;;;27.70;88.80;;;;;;5055396;28;20128;-75
2022/09/25 12:40:22;;;;;;;9.32;1.35;;;28.20;88.40;;;;;;5049608;28;20048;-74
2022/09/25 12:43:13;;;;;;;5.70;1.38;;;28.60;90.40;;;;;;5055192;28;20116;-74
2022/09/25 12:45:39;;;;;;;2.60;0.93;;;29.10;89.70;;;;;;5055309;28;20108;-74
2022/09/25 12:48:25;;;;;;;3.05;0.82;;;28.90;83.00;;;;;;5054564;28;20041;-75
2022/09/25 12:50:56;;;;;;;5.40;1.85;;;28.20;82.80;;;;;;5054652;28;20398;-74
2022/09/25 12:53:37;;;;;;;4.65;1.45;;;27.20;83.90;;;;;;5055334;28;20512;-73
2022/09/25 12:56:25;;;;;;;3.83;2.30;;;26.40;86.20;;;;;;5055183;28;20462;-74
2022/09/25 12:58:58;;;;;;;5.32;1.50;;;25.60;90.10;;;;;;5024608;28;20072;-74
2022/09/25 13:01:45;;;;;;;4.80;1.17;;;25.10;90.60;;;;;;5054837;28;20033;-73
2022/09/25 13:04:34;;;;;;;3.33;1.38;;;24.50;90.60;;;;;;5054827;28;20029;-73
2022/09/25 13:07:22;;;;;;;3.78;0.90;;;23.90;91.40;;;;;;5055039;28;20021;-73
2022/09/25 13:09:48;;;;;;;2.90;1.08;;;23.30;91.60;;;;;;5054746;28;20048;-73
2022/09/25 13:12:35;;;;;;;5.15;1.23;;;23.00;92.70;;;;;;5054680;28;20025;-73
2022/09/25 13:15:17;;;;;;;3.35;0.85;;;22.70;92.00;;;;;;5054468;28;20032;-72
2022/09/25 13:17:43;;;;;;;2.65;1.10;;;22.40;92.00;;;;;;5054542;28;20032;-72
2022/09/25 13:20:39;;;;;;;4.18;1.17;;;22.20;92.50;;;;;;5055526;28;20375;-72
2022/09/25 13:23:30;;;;;;;2.63;0.80;;;21.90;92.10;;;;;;5041693;28;20045;-72
2022/09/25 13:26:00;;;;;;;2.70;1.27;;;21.80;92.60;;;;;;5043158;28;20033;-72
2022/09/25 13:28:36;;;;;;;3.65;1.00;;;21.80;93.10;;;;;;5054590;28;20029;-72
2022/09/25 13:31:04;;;;;;;3.47;0.88;;;21.70;91.80;;;;;;5050145;28;20075;-72
2022/09/25 13:33:36;;;;;;;1.85;0.70;;;21.70;92.40;;;;;;5053624;28;20025;-72
2022/09/25 13:36:11;;;;;;;2.20;0.80;;;21.60;92.80;;;;;;5056656;28;20118;-72
2022/09/25 13:41:29;;;;;;;2.67;0.93;;;21.60;93.20;;;;;;5063558;28;20039;-72